Time;durP1;ratioP1;P1;durP2;ratioP2;P2;SDS_P1;SDS_P2;PMS_P1;PMS_P2;Temp;Humidity;BMP_temperature;BMP_pressure;BME280_temperature;BME280_humidity;BME280_pressure;Samples;Min_cycle;Max_cycle;Signal;HPM_P1;HPM_P2
2021/12/05 00:16:51;;;;;;;;;;;;;;;;;;2082866;28;19908;-81
2021/12/05 00:19:37;;;;;;;;;;;;;;;;;;2082438;28;19909;-79
2021/12/05 00:21:00;;;;;;;;;;;;;;;;;;2082445;28;19917;-78
2021/12/05 00:22:14;;;;;;;;;;;;;;;;;;2082544;28;19945;-81
2021/12/05 00:23:22;;;;;;;;;;;;;;;;;;2082441;28;19913;-81
2021/12/05 00:24:25;;;;;;;;;;;;;;;;;;2082271;28;19913;-81
2021/12/05 00:25:31;;;;;;;;;;;;;;;;;;2082278;28;20297;-85
2021/12/05 00:26:44;;;;;;;;;;;;;;;;;;2082454;28;20355;-83
2021/12/05 00:27:49;;;;;;;;;;;;;;;;;;2082472;28;19920;-80
2021/12/05 00:31:59;;;;;;;;;;;;;;;;;;2049210;29;19910;-80
2021/12/05 00:48:07;;;;;;;;;;;;;;;;;;2082427;28;19917;-84
2021/12/05 00:53:28;;;;;;;;;;;;;;;;;;2082201;28;19916;-83
2021/12/05 01:14:58;;;;;;;;;;;;;;;;;;2081830;28;19960;-84
2021/12/05 01:16:00;;;;;;;;;;;;;;;;;;2073122;28;20020;-84
2021/12/05 01:17:01;;;;;;;;;;;;;;;;;;2065385;28;20008;-85
2021/12/05 01:18:06;;;;;;;;;;;;;;;;;;2073418;28;19959;-84
2021/12/05 01:19:07;;;;;;;;;;;;;;;;;;2081943;28;19909;-84
2021/12/05 01:20:11;;;;;;;;;;;;;;;;;;2081917;28;19943;-85
2021/12/05 01:21:14;;;;;;;;;;;;;;;;;;2073153;28;19956;-85
2021/12/05 01:22:18;;;;;;;;;;;;;;;;;;2073604;28;20362;-85
2021/12/05 01:26:49;;;;;;;;;;;;;;;;;;2081894;28;20336;-83
2021/12/05 01:29:22;;;;;;;;;;;;;;;;;;2081957;28;19909;-83
2021/12/05 01:30:38;;;;;;;;;;;;;;;;;;2081876;28;19967;-84
2021/12/05 01:33:04;;;;;;;;;;;;;;;;;;2081841;28;19978;-85
2021/12/05 01:35:27;;;;;;;;;;;;;;;;;;2073393;28;19943;-84
2021/12/05 02:00:15;;;;;;;;;;;;;;;;;;2081646;28;20343;-84
2021/12/05 02:01:26;;;;;;;;;;;;;;;;;;2081019;28;20039;-84
2021/12/05 02:11:22;;;;;;;;;;;;;;;;;;2081744;28;19924;-84
2021/12/05 02:16:26;;;;;;;;;;;;;;;;;;2081519;28;19909;-85
2021/12/05 02:32:18;;;;;;;;;;;;;;;;;;2081530;28;19905;-84
2021/12/05 02:37:50;;;;;;;;;;;;;;;;;;2081495;28;19909;-85
2021/12/05 02:40:26;;;;;;;;;;;;;;;;;;2081609;28;20283;-84
2021/12/05 02:41:29;;;;;;;;;;;;;;;;;;2072717;28;19921;-85
2021/12/05 02:42:32;;;;;;;;;;;;;;;;;;2064894;28;19975;-84
2021/12/05 02:43:44;;;;;;;;;;;;;;;;;;2073200;28;19968;-84
2021/12/05 02:44:47;;;;;;;;;;;;;;;;;;2081529;28;20352;-84
2021/12/05 02:45:47;;;;;;;;;;;;;;;;;;2081275;28;19912;-85
2021/12/05 02:46:58;;;;;;;;;;;;;;;;;;2081652;28;20343;-85
2021/12/05 02:47:58;;;;;;;;;;;;;;;;;;2081482;28;19908;-86
2021/12/05 02:49:01;;;;;;;;;;;;;;;;;;2083128;28;20345;-84
2021/12/05 02:50:05;;;;;;;;;;;;;;;;;;2083255;28;19908;-83
2021/12/05 02:51:10;;;;;;;;;;;;;;;;;;2074495;28;19948;-84
2021/12/05 02:52:17;;;;;;;;;;;;;;;;;;2075167;28;19909;-84
2021/12/05 02:53:28;;;;;;;;;;;;;;;;;;2083153;28;20182;-84
2021/12/05 02:54:32;;;;;;;;;;;;;;;;;;2083108;28;19920;-84
2021/12/05 02:55:39;;;;;;;;;;;;;;;;;;2082901;28;20359;-83
2021/12/05 02:56:43;;;;;;;;;;;;;;;;;;2083178;28;19908;-84
2021/12/05 02:58:49;;;;;;;;;;;;;;;;;;2083283;28;20041;-84
2021/12/05 02:59:54;;;;;;;;;;;;;;;;;;2083065;28;19909;-84
2021/12/05 03:02:05;;;;;;;;;;;;;;;;;;2083073;28;19919;-83
2021/12/05 03:03:17;;;;;;;;;;;;;;;;;;2083067;28;19920;-84
2021/12/05 03:04:17;;;;;;;;;;;;;;;;;;2083013;28;19975;-84
2021/12/05 03:05:21;;;;;;;;;;;;;;;;;;2082982;28;19913;-84
2021/12/05 03:06:24;;;;;;;;;;;;;;;;;;2082858;28;19916;-85
2021/12/05 03:07:37;;;;;;;;;;;;;;;;;;2083098;28;19970;-84
2021/12/05 03:08:38;;;;;;;;;;;;;;;;;;2082961;28;20395;-84
2021/12/05 03:09:39;;;;;;;;;;;;;;;;;;2074422;28;19936;-84
2021/12/05 03:10:39;;;;;;;;;;;;;;;;;;2074439;28;19909;-85
2021/12/05 03:11:40;;;;;;;;;;;;;;;;;;2083051;28;19909;-84
2021/12/05 03:12:43;;;;;;;;;;;;;;;;;;2082945;28;20259;-84
2021/12/05 03:13:43;;;;;;;;;;;;;;;;;;2083117;28;20363;-84
2021/12/05 03:14:44;;;;;;;;;;;;;;;;;;2082752;28;20244;-84
2021/12/05 03:15:44;;;;;;;;;;;;;;;;;;2074214;28;20390;-84
2021/12/05 03:16:45;;;;;;;;;;;;;;;;;;2074319;28;19937;-85
2021/12/05 03:17:45;;;;;;;;;;;;;;;;;;2083210;28;20527;-84
2021/12/05 03:18:46;;;;;;;;;;;;;;;;;;2082909;28;20352;-85
2021/12/05 03:19:46;;;;;;;;;;;;;;;;;;2083002;28;20390;-84
2021/12/05 03:20:46;;;;;;;;;;;;;;;;;;2082780;28;19916;-85
2021/12/05 03:21:47;;;;;;;;;;;;;;;;;;2082942;28;19924;-84
2021/12/05 03:22:50;;;;;;;;;;;;;;;;;;2082768;28;19909;-84
2021/12/05 03:23:51;;;;;;;;;;;;;;;;;;2074222;28;20339;-84
2021/12/05 03:24:52;;;;;;;;;;;;;;;;;;2066215;28;19909;-84
2021/12/05 03:25:53;;;;;;;;;;;;;;;;;;2074185;28;19933;-83
2021/12/05 03:26:56;;;;;;;;;;;;;;;;;;2074049;28;20383;-84
2021/12/05 03:27:59;;;;;;;;;;;;;;;;;;2074186;28;20304;-84
2021/12/05 03:28:59;;;;;;;;;;;;;;;;;;2074489;28;19980;-84
2021/12/05 03:30:00;;;;;;;;;;;;;;;;;;2074364;28;19910;-84
2021/12/05 03:31:00;;;;;;;;;;;;;;;;;;2074297;28;20416;-84
2021/12/05 03:32:01;;;;;;;;;;;;;;;;;;2074133;28;19917;-82
2021/12/05 03:33:01;;;;;;;;;;;;;;;;;;2074164;28;19920;-84
2021/12/05 03:34:03;;;;;;;;;;;;;;;;;;2082859;28;19999;-85
2021/12/05 03:35:05;;;;;;;;;;;;;;;;;;2082797;28;19988;-84
2021/12/05 03:36:06;;;;;;;;;;;;;;;;;;2082800;28;19949;-85
2021/12/05 03:37:08;;;;;;;;;;;;;;;;;;2083020;28;20003;-84
2021/12/05 03:38:08;;;;;;;;;;;;;;;;;;2082786;28;19920;-83
2021/12/05 03:39:10;;;;;;;;;;;;;;;;;;2083001;28;20214;-84
2021/12/05 03:40:10;;;;;;;;;;;;;;;;;;2082710;28;19909;-84
2021/12/05 03:41:10;;;;;;;;;;;;;;;;;;2082697;28;19935;-84
2021/12/05 03:42:11;;;;;;;;;;;;;;;;;;2082776;28;19909;-85
2021/12/05 03:43:14;;;;;;;;;;;;;;;;;;2082756;28;19916;-84
2021/12/05 03:44:16;;;;;;;;;;;;;;;;;;2082713;28;19966;-84
2021/12/05 03:45:18;;;;;;;;;;;;;;;;;;2082884;28;19920;-84
2021/12/05 03:46:19;;;;;;;;;;;;;;;;;;2082723;28;20134;-84
2021/12/05 03:47:20;;;;;;;;;;;;;;;;;;2082785;28;19909;-84
2021/12/05 03:48:22;;;;;;;;;;;;;;;;;;2082733;28;19995;-85
2021/12/05 03:49:23;;;;;;;;;;;;;;;;;;2082847;28;19978;-83
2021/12/05 03:50:24;;;;;;;;;;;;;;;;;;2082794;28;19905;-83
2021/12/05 03:51:25;;;;;;;;;;;;;;;;;;2082846;28;20181;-84
2021/12/05 03:52:26;;;;;;;;;;;;;;;;;;2082594;28;19916;-85
2021/12/05 03:53:26;;;;;;;;;;;;;;;;;;2082734;28;20266;-84
2021/12/05 03:54:29;;;;;;;;;;;;;;;;;;2082634;28;19916;-84
2021/12/05 03:55:30;;;;;;;;;;;;;;;;;;2082619;28;20011;-84
2021/12/05 03:56:30;;;;;;;;;;;;;;;;;;2082648;28;20339;-84
2021/12/05 03:57:30;;;;;;;;;;;;;;;;;;2082682;28;19909;-84
2021/12/05 03:58:31;;;;;;;;;;;;;;;;;;2073946;28;19917;-84
2021/12/05 03:59:32;;;;;;;;;;;;;;;;;;2073548;28;19909;-84
2021/12/05 04:00:35;;;;;;;;;;;;;;;;;;2073760;28;20447;-84
2021/12/05 04:01:36;;;;;;;;;;;;;;;;;;2074311;28;20186;-85
2021/12/05 04:02:36;;;;;;;;;;;;;;;;;;2082597;28;19920;-84
2021/12/05 04:03:37;;;;;;;;;;;;;;;;;;2073978;28;20028;-85
2021/12/05 04:04:38;;;;;;;;;;;;;;;;;;2073894;28;19917;-84
2021/12/05 04:05:38;;;;;;;;;;;;;;;;;;2073796;28;20395;-84
2021/12/05 04:06:39;;;;;;;;;;;;;;;;;;2073906;28;20272;-84
2021/12/05 04:07:40;;;;;;;;;;;;;;;;;;2073942;28;19910;-84
2021/12/05 04:08:41;;;;;;;;;;;;;;;;;;2073955;28;19971;-84
2021/12/05 04:09:41;;;;;;;;;;;;;;;;;;2082732;28;19920;-84
2021/12/05 04:10:43;;;;;;;;;;;;;;;;;;2082525;28;20303;-83
2021/12/05 04:11:48;;;;;;;;;;;;;;;;;;2073934;28;20439;-84
2021/12/05 04:12:49;;;;;;;;;;;;;;;;;;2074411;28;20435;-83
2021/12/05 04:13:50;;;;;;;;;;;;;;;;;;2082698;28;19920;-83
2021/12/05 04:14:54;;;;;;;;;;;;;;;;;;2082295;28;19983;-84
2021/12/05 04:15:55;;;;;;;;;;;;;;;;;;2082656;28;19909;-84
2021/12/05 04:16:56;;;;;;;;;;;;;;;;;;2082519;28;20291;-84
2021/12/05 04:17:57;;;;;;;;;;;;;;;;;;2073847;28;19920;-84
2021/12/05 04:18:57;;;;;;;;;;;;;;;;;;2065708;28;19929;-84
2021/12/05 04:19:57;;;;;;;;;;;;;;;;;;2073802;28;19925;-84
2021/12/05 04:20:58;;;;;;;;;;;;;;;;;;2082297;28;19913;-84
2021/12/05 04:21:58;;;;;;;;;;;;;;;;;;2082438;28;19909;-84
2021/12/05 04:22:58;;;;;;;;;;;;;;;;;;2073925;28;19909;-84
2021/12/05 04:23:59;;;;;;;;;;;;;;;;;;2073764;28;20375;-85
2021/12/05 04:25:02;;;;;;;;;;;;;;;;;;2082447;28;19932;-84
2021/12/05 04:26:03;;;;;;;;;;;;;;;;;;2082312;28;20138;-84
2021/12/05 04:27:04;;;;;;;;;;;;;;;;;;2082451;28;19971;-84
2021/12/05 04:28:05;;;;;;;;;;;;;;;;;;2073734;28;20283;-84
2021/12/05 04:29:06;;;;;;;;;;;;;;;;;;2073883;28;19944;-85
2021/12/05 04:30:07;;;;;;;;;;;;;;;;;;2082478;28;20336;-85
2021/12/05 04:31:09;;;;;;;;;;;;;;;;;;2082442;28;20454;-85
2021/12/05 04:32:09;;;;;;;;;;;;;;;;;;2082359;28;20339;-84
2021/12/05 04:33:10;;;;;;;;;;;;;;;;;;2082601;28;19909;-85
2021/12/05 04:34:11;;;;;;;;;;;;;;;;;;2082306;28;19927;-85
2021/12/05 04:35:12;;;;;;;;;;;;;;;;;;2082355;28;19909;-85
2021/12/05 04:36:12;;;;;;;;;;;;;;;;;;2082249;28;19909;-85
2021/12/05 04:37:13;;;;;;;;;;;;;;;;;;2082519;28;19913;-85
2021/12/05 04:38:13;;;;;;;;;;;;;;;;;;2082351;28;19913;-85
2021/12/05 04:39:16;;;;;;;;;;;;;;;;;;2073589;28;20008;-85
2021/12/05 04:40:17;;;;;;;;;;;;;;;;;;2065808;28;20058;-85
2021/12/05 04:41:17;;;;;;;;;;;;;;;;;;2073636;28;19917;-85
2021/12/05 04:42:18;;;;;;;;;;;;;;;;;;2073533;28;19913;-85
2021/12/05 04:43:18;;;;;;;;;;;;;;;;;;2065553;28;20004;-85
2021/12/05 04:44:20;;;;;;;;;;;;;;;;;;2065441;28;19910;-85
2021/12/05 04:45:22;;;;;;;;;;;;;;;;;;2073773;28;19909;-85
2021/12/05 04:46:23;;;;;;;;;;;;;;;;;;2082005;28;19913;-85
2021/12/05 04:47:23;;;;;;;;;;;;;;;;;;2082299;28;19995;-85
2021/12/05 04:48:24;;;;;;;;;;;;;;;;;;2082203;28;20360;-85
2021/12/05 04:49:24;;;;;;;;;;;;;;;;;;2082335;28;19928;-84
2021/12/05 04:50:25;;;;;;;;;;;;;;;;;;2082273;28;20323;-85
2021/12/05 04:51:27;;;;;;;;;;;;;;;;;;2082558;28;19916;-85
2021/12/05 04:52:27;;;;;;;;;;;;;;;;;;2073468;28;19957;-85
2021/12/05 04:53:28;;;;;;;;;;;;;;;;;;2073590;28;19913;-84
2021/12/05 04:54:29;;;;;;;;;;;;;;;;;;2082209;28;19909;-84
2021/12/05 04:55:29;;;;;;;;;;;;;;;;;;2082185;28;20007;-85
2021/12/05 04:56:30;;;;;;;;;;;;;;;;;;2082160;28;19983;-84
2021/12/05 04:57:30;;;;;;;;;;;;;;;;;;2082114;28;19913;-84
2021/12/05 04:58:33;;;;;;;;;;;;;;;;;;2082188;28;19993;-85
2021/12/05 04:59:36;;;;;;;;;;;;;;;;;;2082079;28;20283;-84
2021/12/05 05:00:39;;;;;;;;;;;;;;;;;;2082241;28;19909;-85
2021/12/05 05:01:40;;;;;;;;;;;;;;;;;;2081931;28;19913;-84
2021/12/05 05:02:41;;;;;;;;;;;;;;;;;;2082117;28;19908;-84
2021/12/05 05:03:41;;;;;;;;;;;;;;;;;;2082092;28;20360;-84
2021/12/05 05:04:45;;;;;;;;;;;;;;;;;;2082126;28;20459;-85
2021/12/05 05:05:51;;;;;;;;;;;;;;;;;;2081932;28;20322;-85
2021/12/05 05:06:53;;;;;;;;;;;;;;;;;;2082257;28;19988;-85
2021/12/05 05:07:54;;;;;;;;;;;;;;;;;;2082113;28;19919;-85
2021/12/05 05:08:54;;;;;;;;;;;;;;;;;;2082103;28;19935;-85
2021/12/05 05:09:58;;;;;;;;;;;;;;;;;;2082150;28;19909;-85
2021/12/05 05:11:00;;;;;;;;;;;;;;;;;;2081351;28;19909;-85
2021/12/05 05:12:00;;;;;;;;;;;;;;;;;;2081987;28;20280;-84
2021/12/05 05:13:00;;;;;;;;;;;;;;;;;;2082107;28;19909;-84
2021/12/05 05:14:00;;;;;;;;;;;;;;;;;;2081869;28;19920;-84
2021/12/05 05:15:01;;;;;;;;;;;;;;;;;;2082132;28;20387;-85
2021/12/05 05:16:04;;;;;;;;;;;;;;;;;;2073235;28;19941;-85
2021/12/05 05:17:04;;;;;;;;;;;;;;;;;;2073738;28;19909;-85
2021/12/05 05:18:06;;;;;;;;;;;;;;;;;;2073335;28;19956;-85
2021/12/05 05:19:08;;;;;;;;;;;;;;;;;;2073751;28;19910;-85
2021/12/05 05:20:21;;;;;;;;;;;;;;;;;;2081928;28;19940;-84
2021/12/05 05:22:43;;;;;;;;;;;;;;;;;;2075041;28;19996;-84
2021/12/05 05:25:27;;;;;;;;;;;;;;;;;;2073340;28;20033;-85
2021/12/05 05:30:54;;;;;;;;;;;;;;;;;;2082027;28;19909;-85
2021/12/05 05:39:19;;;;;;;;;;;;;;;;;;2081909;28;19905;-85
2021/12/05 05:47:05;;;;;;;;;;;;;;;;;;2081772;28;19913;-84
2021/12/05 05:50:12;;;;;;;;;;;;;;;;;;2081842;28;19978;-85
2021/12/05 05:51:13;;;;;;;;;;;;;;;;;;2081709;28;19905;-85
2021/12/05 05:52:13;;;;;;;;;;;;;;;;;;2081801;28;19913;-84
2021/12/05 05:53:13;;;;;;;;;;;;;;;;;;2081679;28;20412;-85
2021/12/05 05:54:14;;;;;;;;;;;;;;;;;;2081778;28;19909;-85
2021/12/05 05:55:14;;;;;;;;;;;;;;;;;;2081699;28;20390;-84
2021/12/05 05:56:20;;;;;;;;;;;;;;;;;;2081598;28;19909;-84
2021/12/05 05:57:25;;;;;;;;;;;;;;;;;;2081789;28;19909;-85
2021/12/05 05:58:46;;;;;;;;;;;;;;;;;;2081634;28;19920;-85
2021/12/05 06:00:00;;;;;;;;;;;;;;;;;;2081623;28;19948;-85
2021/12/05 06:01:03;;;;;;;;;;;;;;;;;;2081615;28;20395;-85
2021/12/05 06:03:20;;;;;;;;;;;;;;;;;;2072922;28;19909;-84
2021/12/05 06:03:24;;;;;;;;;;;;;;;;;;2075635;28;19991;-84
2021/12/05 06:04:24;;;;;;;;;;;;;;;;;;2072924;28;19910;-84
2021/12/05 06:05:25;;;;;;;;;;;;;;;;;;2073036;28;20005;-84
2021/12/05 06:06:26;;;;;;;;;;;;;;;;;;2072959;28;20311;-85
2021/12/05 06:07:27;;;;;;;;;;;;;;;;;;2073096;28;19919;-84
2021/12/05 06:08:29;;;;;;;;;;;;;;;;;;2081490;28;19913;-84
2021/12/05 06:09:31;;;;;;;;;;;;;;;;;;2081636;28;20016;-84
2021/12/05 06:10:33;;;;;;;;;;;;;;;;;;2081546;28;19972;-84
2021/12/05 06:11:34;;;;;;;;;;;;;;;;;;2081651;28;20275;-84
2021/12/05 06:12:34;;;;;;;;;;;;;;;;;;2081527;28;19915;-84
2021/12/05 06:13:35;;;;;;;;;;;;;;;;;;2081551;28;19909;-84
2021/12/05 06:14:36;;;;;;;;;;;;;;;;;;2081447;28;19990;-84
2021/12/05 06:15:36;;;;;;;;;;;;;;;;;;2081535;28;20010;-84
2021/12/05 06:16:37;;;;;;;;;;;;;;;;;;2081577;28;19944;-84
2021/12/05 06:17:37;;;;;;;;;;;;;;;;;;2081711;28;19913;-84
2021/12/05 06:18:38;;;;;;;;;;;;;;;;;;2081546;28;19909;-84
2021/12/05 06:19:38;;;;;;;;;;;;;;;;;;2073154;28;20280;-83
2021/12/05 06:22:08;;;;;;;;;;;;;;;;;;2070635;28;19919;-83
2021/12/05 06:23:09;;;;;;;;;;;;;;;;;;2072775;28;20280;-84
2021/12/05 06:24:10;;;;;;;;;;;;;;;;;;2064907;28;19913;-84
2021/12/05 06:25:15;;;;;;;;;;;;;;;;;;2072931;28;20352;-83
2021/12/05 06:26:22;;;;;;;;;;;;;;;;;;2081586;28;20343;-84
2021/12/05 06:27:22;;;;;;;;;;;;;;;;;;2081505;28;19916;-84
2021/12/05 06:28:43;;;;;;;;;;;;;;;;;;2081628;28;19916;-84
2021/12/05 06:29:52;;;;;;;;;;;;;;;;;;2073075;28;19928;-83
2021/12/05 06:31:12;;;;;;;;;;;;;;;;;;2065973;28;20000;-83
2021/12/05 06:38:07;;;;;;;;;;;;;;;;;;2056434;28;20327;-84
2021/12/05 06:40:38;;;;;;;;;;;;;;;;;;2076641;28;19959;-84
2021/12/05 06:46:33;;;;;;;;;;;;;;;;;;2082174;28;19925;-83
2021/12/05 06:47:34;;;;;;;;;;;;;;;;;;2082231;28;19920;-83
2021/12/05 06:48:34;;;;;;;;;;;;;;;;;;2081958;28;19920;-84
2021/12/05 06:49:35;;;;;;;;;;;;;;;;;;2082013;28;19920;-84
2021/12/05 06:50:35;;;;;;;;;;;;;;;;;;2081560;28;19909;-84
2021/12/05 06:51:35;;;;;;;;;;;;;;;;;;2072855;28;20351;-85
2021/12/05 06:52:36;;;;;;;;;;;;;;;;;;2073153;28;20332;-84
2021/12/05 06:53:36;;;;;;;;;;;;;;;;;;2081450;28;19913;-84
2021/12/05 06:54:37;;;;;;;;;;;;;;;;;;2081661;28;19920;-84
2021/12/05 06:55:38;;;;;;;;;;;;;;;;;;2081520;28;20007;-85
2021/12/05 06:56:38;;;;;;;;;;;;;;;;;;2081400;28;19937;-84
2021/12/05 06:57:38;;;;;;;;;;;;;;;;;;2081605;28;19920;-84
2021/12/05 06:58:39;;;;;;;;;;;;;;;;;;2072660;28;19943;-85
2021/12/05 06:59:39;;;;;;;;;;;;;;;;;;2072947;28;20462;-85
2021/12/05 07:00:40;;;;;;;;;;;;;;;;;;2081374;28;20000;-84
2021/12/05 07:01:40;;;;;;;;;;;;;;;;;;2072822;28;20319;-85
2021/12/05 07:02:40;;;;;;;;;;;;;;;;;;2072786;28;19909;-85
2021/12/05 07:03:43;;;;;;;;;;;;;;;;;;2081356;28;19909;-85
2021/12/05 07:06:53;;;;;;;;;;;;;;;;;;2081470;28;19909;-85
2021/12/05 07:07:53;;;;;;;;;;;;;;;;;;2081461;28;19920;-84
2021/12/05 07:08:58;;;;;;;;;;;;;;;;;;2081314;28;20001;-85
2021/12/05 07:09:58;;;;;;;;;;;;;;;;;;2081519;28;19920;-85
2021/12/05 07:11:02;;;;;;;;;;;;;;;;;;2081413;28;20427;-85
2021/12/05 07:13:53;;;;;;;;;;;;;;;;;;2081561;28;19913;-85
2021/12/05 07:14:52;;;;;;;;;;;;;;;;;;2081136;28;19913;-85
2021/12/05 07:17:08;;;;;;;;;;;;;;;;;;2073066;28;19909;-83
2021/12/05 07:20:54;;;;;;;;;;;;;;;;;;2081517;28;19949;-85
2021/12/05 07:21:58;;;;;;;;;;;;;;;;;;2081308;28;19913;-85
2021/12/05 07:25:40;;;;;;;;;;;;;;;;;;2081358;28;20271;-85
2021/12/05 07:40:54;;;;;;;;;;;;;;;;;;2082803;28;19908;-84
2021/12/05 07:42:04;;;;;;;;;;;;;;;;;;2082160;28;20356;-84
2021/12/05 07:43:08;;;;;;;;;;;;;;;;;;2082209;28;19909;-84
2021/12/05 07:44:11;;;;;;;;;;;;;;;;;;2082098;28;20371;-83
2021/12/05 07:45:14;;;;;;;;;;;;;;;;;;2082798;28;20340;-85
2021/12/05 07:46:15;;;;;;;;;;;;;;;;;;2082668;28;19909;-84
2021/12/05 07:47:19;;;;;;;;;;;;;;;;;;2082884;28;20004;-84
2021/12/05 07:48:24;;;;;;;;;;;;;;;;;;2074146;28;19959;-83
2021/12/05 07:49:24;;;;;;;;;;;;;;;;;;2074878;28;19905;-83
2021/12/05 07:50:44;;;;;;;;;;;;;;;;;;2082724;28;19951;-83
2021/12/05 07:51:47;;;;;;;;;;;;;;;;;;2082215;28;19905;-84
2021/12/05 07:52:51;;;;;;;;;;;;;;;;;;2082185;28;20182;-83
2021/12/05 07:55:08;;;;;;;;;;;;;;;;;;2082572;28;19909;-84
2021/12/05 07:56:15;;;;;;;;;;;;;;;;;;2082756;28;19963;-83
2021/12/05 07:57:23;;;;;;;;;;;;;;;;;;2082175;28;19909;-83
2021/12/05 07:58:47;;;;;;;;;;;;;;;;;;2082111;28;19909;-83
2021/12/05 08:14:32;;;;;;;;;;;;;;;;;;2083718;28;19921;-83
2021/12/05 08:15:40;;;;;;;;;;;;;;;;;;2083121;28;19995;-83
2021/12/05 08:16:46;;;;;;;;;;;;;;;;;;2083675;28;20396;-84
2021/12/05 08:17:55;;;;;;;;;;;;;;;;;;2087157;28;20019;-83
2021/12/05 08:18:55;;;;;;;;;;;;;;;;;;2088278;28;19920;-83
2021/12/05 08:19:55;;;;;;;;;;;;;;;;;;2080350;28;19909;-83
2021/12/05 08:20:57;;;;;;;;;;;;;;;;;;2079102;28;19936;-84
2021/12/05 08:21:57;;;;;;;;;;;;;;;;;;2089414;28;19977;-83
2021/12/05 08:23:06;;;;;;;;;;;;;;;;;;2087788;28;19932;-83
2021/12/05 08:24:06;;;;;;;;;;;;;;;;;;2086516;28;19920;-84
2021/12/05 08:25:12;;;;;;;;;;;;;;;;;;2085782;28;19967;-83
2021/12/05 08:26:19;;;;;;;;;;;;;;;;;;2080739;28;19909;-84
2021/12/05 08:27:22;;;;;;;;;;;;;;;;;;2078735;28;20417;-84
2021/12/05 08:28:46;;;;;;;;;;;;;;;;;;2076506;28;19909;-84
2021/12/05 08:29:51;;;;;;;;;;;;;;;;;;2082577;28;19971;-84
2021/12/05 08:31:23;;;;;;;;;;;;;;;;;;2089066;28;20354;-84
2021/12/05 08:33:37;;;;;;;;;;;;;;;;;;2084634;28;19913;-83
2021/12/05 08:43:37;;;;;;;;;;;;;;;;;;2067486;28;19945;-84
2021/12/05 10:11:42;;;;;;;;;;;;;;;;;;2065582;28;19917;-78
2021/12/05 10:16:51;;;;;;;;;;;;;;;;;;2065867;28;19917;-80
2021/12/05 10:18:51;;;;;;;;;;;;;;;;;;2065436;28;19924;-80
2021/12/05 10:27:14;;;;;;;;;;;;;;;;;;2065585;28;19909;-80
2021/12/05 10:34:09;;;;;;;;;;;;;;;;;;2065472;28;19909;-80
2021/12/05 10:36:38;;;;;;;;;;;;;;;;;;;;;
2021/12/05 10:37:48;;;;;;;;;;;;;;;;;;2065176;28;19909;-80
2021/12/05 10:38:54;;;;;;;;;;;;;;;;;;2065444;28;20000;-80
2021/12/05 10:40:06;;;;;;;;;;;;;;;;;;2065209;28;19913;-80
2021/12/05 10:42:42;;;;;;;;;;;;;;;;;;2065309;28;19910;-80
2021/12/05 10:43:43;;;;;;;;;;;;;;;;;;2064353;28;20462;-79
2021/12/05 10:44:44;;;;;;;;;;;;;;;;;;2064431;28;19909;-79
2021/12/05 10:45:54;;;;;;;;;;;;;;;;;;2057600;28;19914;-79
2021/12/05 10:46:55;;;;;;;;;;;;;;;;;;2057370;28;19953;-79
2021/12/05 10:47:56;;;;;;;;;;;;;;;;;;2060487;28;19976;-79
2021/12/05 10:49:02;;;;;;;;;;;;;;;;;;2061189;28;19924;-79
2021/12/05 10:50:23;;;;;;;;;;;;;;;;;;2062698;28;19971;-79
2021/12/05 10:51:27;;;;;;;;;;;;;;;;;;2053197;28;19906;-79
2021/12/05 10:52:27;;;;;;;;;;;;;;;;;;2059029;28;19910;-80
2021/12/05 10:53:33;;;;;;;;;;;;;;;;;;2064189;28;20388;-80
2021/12/05 10:54:36;;;;;;;;;;;;;;;;;;2064701;28;20425;-79
2021/12/05 10:55:39;;;;;;;;;;;;;;;;;;2059336;28;19921;-79
2021/12/05 10:56:52;;;;;;;;;;;;;;;;;;2063513;28;19931;-78
2021/12/05 10:57:54;;;;;;;;;;;;;;;;;;2061943;28;19917;-80
2021/12/05 10:59:34;;;;;;;;;;;;;;;;;;2058039;28;19917;-80
2021/12/05 11:00:35;;;;;;;;;;;;;;;;;;2034722;28;19927;-78
2021/12/05 11:01:37;;;;;;;;;;;;;;;;;;2056753;28;20561;-81
2021/12/05 11:02:37;;;;;;;;;;;;;;;;;;2059271;28;19988;-80
2021/12/05 11:03:38;;;;;;;;;;;;;;;;;;2064845;28;20359;-80
2021/12/05 11:04:40;;;;;;;;;;;;;;;;;;2064497;28;20360;-78
2021/12/05 11:07:15;;;;;;;;;;;;;;;;;;;;;
2021/12/05 11:11:45;;;;;;;;;;;;;;;;;;2058233;28;20352;-79
2021/12/05 11:13:07;;;;;;;;;;;;;;;;;;2058028;28;20368;-80
2021/12/05 11:16:17;;;;;;;;;;;;;;;;;;2052874;28;19910;-78
2021/12/05 11:17:17;;;;;;;;;;;;;;;;;;2049151;29;19921;-80
2021/12/05 11:18:36;;;;;;;;;;;;;;;;;;2049116;29;20089;-80
2021/12/05 11:19:36;;;;;;;;;;;;;;;;;;2052657;28;19910;-80
2021/12/05 11:20:41;;;;;;;;;;;;;;;;;;2058044;28;20281;-79
2021/12/05 11:21:49;;;;;;;;;;;;;;;;;;2058235;28;19914;-79
2021/12/05 11:22:50;;;;;;;;;;;;;;;;;;2058704;28;19949;-79
2021/12/05 11:24:08;;;;;;;;;;;;;;;;;;2058707;28;19917;-79
2021/12/05 11:25:15;;;;;;;;;;;;;;;;;;2058724;28;19968;-78
2021/12/05 11:26:16;;;;;;;;;;;;;;;;;;2059366;28;19910;-79
2021/12/05 11:27:36;;;;;;;;;;;;;;;;;;2066596;28;19997;-80
2021/12/05 11:28:39;;;;;;;;;;;;;;;;;;2064498;28;19909;-80
2021/12/05 11:29:43;;;;;;;;;;;;;;;;;;2062530;28;20081;-80
2021/12/05 11:30:45;;;;;;;;;;;;;;;;;;2064575;28;19919;-81
2021/12/05 11:31:51;;;;;;;;;;;;;;;;;;2066237;28;19910;-80
2021/12/05 11:33:07;;;;;;;;;;;;;;;;;;;;;
2021/12/05 11:34:36;;;;;;;;;;;;;;;;;;2077805;28;19910;-76
2021/12/05 11:43:21;;;;;;;;;;;;;;;;;;2160107;23;19921;-79
2021/12/05 11:44:48;;;;;;;;;;;;;;;;;;2066978;28;20280;-79
2021/12/05 11:45:57;;;;;;;;;;;;;;;;;;2066451;28;20397;-79
2021/12/05 11:47:24;;;;;;;;;;;;;;;;;;2069314;28;19949;-78
2021/12/05 11:48:30;;;;;;;;;;;;;;;;;;2078344;28;19979;-80
2021/12/05 11:49:39;;;;;;;;;;;;;;;;;;2078183;28;19924;-79
2021/12/05 11:55:41;;;;;;;;;;;;;;;;;;2401102;23;20825;-79
2021/12/05 11:58:02;;;;;;;;;;;;;;;;;;;;;
2021/12/05 11:59:41;;;;;;;;;;;;;;;;;;2081236;28;19901;-79
2021/12/05 12:00:44;;;;;;;;;;;;;;;;;;2070749;28;19929;-79
2021/12/05 12:05:39;;;;;;;;;;;;;;;;;;2481314;23;19917;-78
2021/12/05 12:07:07;;;;;;;;;;;;;;;;;;2066489;28;19925;-79
2021/12/05 12:08:12;;;;;;;;;;;;;;;;;;2066719;28;19918;-81
2021/12/05 12:09:12;;;;;;;;;;;;;;;;;;2066890;28;19910;-79
2021/12/05 12:10:27;;;;;;;;;;;;;;;;;;2066857;28;19920;-79
2021/12/05 12:11:56;;;;;;;;;;;;;;;;;;2065705;28;19979;-80
2021/12/05 12:13:01;;;;;;;;;;;;;;;;;;2055980;28;19913;-80
2021/12/05 12:14:17;;;;;;;;;;;;;;;;;;2064854;28;19964;-80
2021/12/05 12:15:20;;;;;;;;;;;;;;;;;;2065372;28;19914;-80
2021/12/05 12:16:26;;;;;;;;;;;;;;;;;;2063706;28;19997;-80
2021/12/05 12:17:27;;;;;;;;;;;;;;;;;;2064236;28;19910;-80
2021/12/05 12:18:32;;;;;;;;;;;;;;;;;;2061834;28;19925;-79
2021/12/05 12:19:35;;;;;;;;;;;;;;;;;;2062506;28;20439;-80
2021/12/05 12:20:39;;;;;;;;;;;;;;;;;;2065735;28;19928;-80
2021/12/05 12:21:44;;;;;;;;;;;;;;;;;;2063779;28;19922;-80
2021/12/05 12:22:45;;;;;;;;;;;;;;;;;;2062042;28;19910;-80
2021/12/05 12:23:47;;;;;;;;;;;;;;;;;;2062876;28;19937;-80
2021/12/05 12:24:49;;;;;;;;;;;;;;;;;;2062262;28;20380;-80
2021/12/05 12:25:51;;;;;;;;;;;;;;;;;;2062286;28;20541;-80
2021/12/05 12:26:54;;;;;;;;;;;;;;;;;;2062943;28;20005;-79
2021/12/05 12:27:55;;;;;;;;;;;;;;;;;;2061113;28;19910;-79
2021/12/05 12:28:55;;;;;;;;;;;;;;;;;;2066250;28;19964;-79
2021/12/05 12:29:57;;;;;;;;;;;;;;;;;;2062344;28;19910;-79
2021/12/05 12:31:02;;;;;;;;;;;;;;;;;;2063117;28;19910;-79
2021/12/05 12:32:10;;;;;;;;;;;;;;;;;;2062064;28;20424;-79
2021/12/05 12:33:13;;;;;;;;;;;;;;;;;;2067028;28;19969;-79
2021/12/05 12:34:40;;;;;;;;;;;;;;;;;;2068826;28;19909;-78
2021/12/05 12:35:46;;;;;;;;;;;;;;;;;;2059659;28;19918;-79
2021/12/05 12:36:48;;;;;;;;;;;;;;;;;;2058486;28;20509;-79
2021/12/05 12:37:57;;;;;;;;;;;;;;;;;;2061905;28;20505;-79
2021/12/05 12:39:20;;;;;;;;;;;;;;;;;;2068851;28;19922;-79
2021/12/05 12:40:41;;;;;;;;;;;;;;;;;;2159454;23;19920;-79
2021/12/05 12:42:12;;;;;;;;;;;;;;;;;;;;;
2021/12/05 12:43:35;;;;;;;;;;;;;;;;;;2173961;23;19922;-79
2021/12/05 12:46:42;;;;;;;;;;;;;;;;;;2377960;23;19916;-79
2021/12/05 12:48:02;;;;;;;;;;;;;;;;;;2077485;28;20008;-78
2021/12/05 12:49:06;;;;;;;;;;;;;;;;;;2074650;28;20367;-78
2021/12/05 12:50:35;;;;;;;;;;;;;;;;;;;;;
2021/12/05 12:52:03;;;;;;;;;;;;;;;;;;;;;
2021/12/05 12:55:52;;;;;;;;;;;;;;;;;;2417850;23;20170;-78
2021/12/05 12:59:35;;;;;;;;;;;;;;;;;;2291558;23;20680;-78
2021/12/05 13:00:36;;;;;;;;;;;;;;;;;;2066400;28;20295;-78
2021/12/05 13:02:01;;;;;;;;;;;;;;;;;;2066108;28;19972;-79
2021/12/05 13:03:01;;;;;;;;;;;;;;;;;;2066041;28;19921;-79
2021/12/05 13:18:41;;;;;;;;;;;;;;;;;;2519785;23;19903;-78
2021/12/05 13:19:55;;;;;;;;;;;;;;;;;;2075246;28;20391;-78
2021/12/05 13:21:04;;;;;;;;;;;;;;;;;;2074801;28;19917;-78
2021/12/05 13:22:06;;;;;;;;;;;;;;;;;;2075728;28;19971;-83
2021/12/05 13:24:34;;;;;;;;;;;;;;;;;;2303749;23;20179;-84
2021/12/05 13:25:54;;;;;;;;;;;;;;;;;;2076093;28;20033;-84
2021/12/05 13:27:03;;;;;;;;;;;;;;;;;;2075143;28;19928;-84
2021/12/05 13:28:22;;;;;;;;;;;;;;;;;;2087396;23;19980;-85
2021/12/05 13:29:23;;;;;;;;;;;;;;;;;;2065813;28;19925;-83
2021/12/05 13:33:44;;;;;;;;;;;;;;;;;;;;;
2021/12/05 13:35:11;;;;;;;;;;;;;;;;;;;;;
2021/12/05 13:36:35;;;;;;;;;;;;;;;;;;2077446;28;19943;-84
2021/12/05 13:37:49;;;;;;;;;;;;;;;;;;2073833;28;19920;-83
2021/12/05 13:38:51;;;;;;;;;;;;;;;;;;2073850;28;19909;-83
2021/12/05 13:40:03;;;;;;;;;;;;;;;;;;2073668;28;20004;-83